Apple Creek, MO

5:34 PM CDT on July 29, 2014 (GMT -0500)
Jackson, MO - Goose Creek at Old Cape Rd. (KMOJACKS8) Elev 535 ft | 37.38 °N, 89.66 °W | Change Station

Current weather conditions updated 13 minutes ago

Clear
Clear
79.9 °F
Feels Like 80 °F
N
1.7
Wind Variable Wind from NNE

Tomorrow is forecast to be nearly the same temperature as today.

Today
High -- | Low -- °F
--% Chance of Precip.
Yesterday
High -- | Low -- °F
Precip. -- in
6:00 AM 8:09 PM
Waxing Crescent, 8% visible
Pressure 30.11 in
Visibility 10.0 miles
Clouds Clear
Heat Index 80 °F
Dew Point 57 °F
Humidity 45%
Rainfall 0.00 in
Snow Depth Not available.
UV 5 out of 12
Pollen 6.80 out of 12
Air Quality Not available.
Flu Activity Not available.
METAR KCGI 292153Z VRB04KT 10SM CLR 26/11 A3011

More Conditions Fewer Conditions

Pressure 30.11 in
Visibility 10.0 miles
Clouds Clear
Heat Index 80 °F
Dew Point 57 °F
Humidity 45%
Rainfall 0.00 in
Snow Depth Not available.
UV 5 out of 12
Pollen 6.80 out of 12
Air Quality Not available.
Flu Activity Not available.
METAR KCGI 292153Z VRB04KT 10SM CLR 26/11 A3011

More Conditions Fewer Conditions

10-Day Weather Forecast

Almanac

Astronomy

Jul. 29, 2014 Rise Set
Actual Time 6:00 AM CDT 8:09 PM CDT
Civil Twilight 5:31 AM CDT 8:38 PM CDT
Nautical Twilight 4:55 AM CDT 9:14 PM CDT
Astronomical Twilight 4:16 AM CDT 9:53 PM CDT
Moon 8:32 AM CDT 9:26 PM CDT
Length of Visible Light 15h 07m
Length of Day
14h 09m
Tomorrow will be 1m 45s shorter.
Waxing Crescent, 8% of the Moon is Illuminated
Today
Waxing Crescent
Aug 3
First Quarter
Aug 10
Full
Aug 17
Last Quarter
Aug 25
New

Today's Extremes

State Highs State Lows

Community

WunderPhotos

Upload Photos

1,738,907 photos uploaded!

Nearby

Snow Depth

Station Depth Elevation
No new snow has been reported.

Earthquake Activity

City Distance Mag. Time & Date
No recent earthquake activity has been reported nearby.
Minimum magnitude displayed is 2.5.

Coastal Water Temperatures

Place Temperature
No Stations Reporting

Nearby Weather Stations

Station Location Temp. Heat Index Dew Point Humidity Wind Precip. Elev Updated Type
Jackson, MO - Goose Creek at Old Cape Rd, Jackson, MO 79.9 °F 80 °F 57 °F 45% NNE  at  1.7 mph - / hr 535 ft 5:21 PM CDT Normal
Dept. of Social Mediarology, Jackson, MO 82.0 °F 82 °F 58 °F 45% ENE  at  2.7 mph - / hr 522 ft 5:27 PM CDT Normal
WeatherTop, Cape Girardeau, MO 78.4 °F 80 °F 59 °F 52% NNE  at  0.0 mph 0.00 in / hr 492 ft 5:25 PM CDT Normal
MesoWest STAFF , Grand Tower, IL 76 °F 74 °F - - North  at  - 0.00 in / hr 358 ft 4:10 PM CDT MADIS
MesoWest WARE1 , Cypress, IL 78 °F 76 °F - - North  at  - 0.00 in / hr 351 ft 4:30 PM CDT MADIS
MesoWest QUARRY , Kelso, MO 84 °F 81 °F - - North  at  - 0.00 in / hr 341 ft 4:25 PM CDT MADIS
MesoWest RKWDJT , Rockwood, IL 75 °F 73 °F - - North  at  - 0.00 in / hr 384 ft 4:40 PM CDT MADIS
MesoWest GAIL1 , McClure, IL 71 °F - - - North  at  - 0.00 in / hr 340 ft 4:20 PM CDT MADIS

Show More Stations Show Fewer Stations